sensor_id;sensor_type;location;lat;lon;timestamp;temperature;humidity
64997;SHT31;51545;51.568;6.998;2023-07-22T00:02:05;13.98;87.53
64997;SHT31;51545;51.568;6.998;2023-07-22T00:04:30;14.15;87.12
64997;SHT31;51545;51.568;6.998;2023-07-22T00:06:56;14.25;86.74
64997;SHT31;51545;51.568;6.998;2023-07-22T00:09:21;14.21;86.53
64997;SHT31;51545;51.568;6.998;2023-07-22T00:11:48;14.39;86.34
64997;SHT31;51545;51.568;6.998;2023-07-22T00:14:14;14.29;86.70
64997;SHT31;51545;51.568;6.998;2023-07-22T00:16:40;14.42;86.56
64997;SHT31;51545;51.568;6.998;2023-07-22T00:19:05;14.39;86.07
64997;SHT31;51545;51.568;6.998;2023-07-22T00:21:32;14.44;85.72
64997;SHT31;51545;51.568;6.998;2023-07-22T00:23:59;14.53;85.35
64997;SHT31;51545;51.568;6.998;2023-07-22T00:26:25;14.48;85.34
64997;SHT31;51545;51.568;6.998;2023-07-22T00:28:50;14.52;85.38
64997;SHT31;51545;51.568;6.998;2023-07-22T00:31:15;14.50;85.12
64997;SHT31;51545;51.568;6.998;2023-07-22T00:33:41;14.42;85.59
64997;SHT31;51545;51.568;6.998;2023-07-22T00:36:07;14.42;86.21
64997;SHT31;51545;51.568;6.998;2023-07-22T00:38:32;14.42;85.99
64997;SHT31;51545;51.568;6.998;2023-07-22T00:40:58;14.59;84.85
64997;SHT31;51545;51.568;6.998;2023-07-22T00:43:24;14.76;83.27
64997;SHT31;51545;51.568;6.998;2023-07-22T00:45:51;14.61;84.70
64997;SHT31;51545;51.568;6.998;2023-07-22T00:48:17;14.56;84.99
64997;SHT31;51545;51.568;6.998;2023-07-22T00:50:44;14.66;84.46
64997;SHT31;51545;51.568;6.998;2023-07-22T00:53:10;14.60;83.64
64997;SHT31;51545;51.568;6.998;2023-07-22T00:55:35;14.74;83.25
64997;SHT31;51545;51.568;6.998;2023-07-22T00:58:02;14.76;83.58
64997;SHT31;51545;51.568;6.998;2023-07-22T01:00:28;14.81;82.90
64997;SHT31;51545;51.568;6.998;2023-07-22T01:02:53;14.77;82.60
64997;SHT31;51545;51.568;6.998;2023-07-22T01:05:19;14.73;83.50
64997;SHT31;51545;51.568;6.998;2023-07-22T01:07:44;14.80;81.89
64997;SHT31;51545;51.568;6.998;2023-07-22T01:10:12;14.81;82.63
64997;SHT31;51545;51.568;6.998;2023-07-22T01:12:39;14.83;82.89
64997;SHT31;51545;51.568;6.998;2023-07-22T01:15:05;14.81;82.50
64997;SHT31;51545;51.568;6.998;2023-07-22T01:17:33;14.88;82.12
64997;SHT31;51545;51.568;6.998;2023-07-22T01:20:00;14.84;81.41
64997;SHT31;51545;51.568;6.998;2023-07-22T01:22:25;14.80;81.37
64997;SHT31;51545;51.568;6.998;2023-07-22T01:24:52;14.64;81.46
64997;SHT31;51545;51.568;6.998;2023-07-22T01:27:19;14.66;81.39
64997;SHT31;51545;51.568;6.998;2023-07-22T01:29:44;14.80;81.59
64997;SHT31;51545;51.568;6.998;2023-07-22T01:32:10;14.81;81.56
64997;SHT31;51545;51.568;6.998;2023-07-22T01:34:35;14.77;82.82
64997;SHT31;51545;51.568;6.998;2023-07-22T01:37:01;14.67;83.28
64997;SHT31;51545;51.568;6.998;2023-07-22T01:39:26;14.70;82.22
64997;SHT31;51545;51.568;6.998;2023-07-22T01:41:54;14.78;82.16
64997;SHT31;51545;51.568;6.998;2023-07-22T01:44:19;14.81;82.34
64997;SHT31;51545;51.568;6.998;2023-07-22T01:46:45;14.74;81.07
64997;SHT31;51545;51.568;6.998;2023-07-22T01:49:11;14.71;81.19
64997;SHT31;51545;51.568;6.998;2023-07-22T01:51:37;14.71;81.32
64997;SHT31;51545;51.568;6.998;2023-07-22T01:54:03;14.60;81.41
64997;SHT31;51545;51.568;6.998;2023-07-22T01:56:29;14.48;81.70
64997;SHT31;51545;51.568;6.998;2023-07-22T01:58:55;14.55;81.76
64997;SHT31;51545;51.568;6.998;2023-07-22T02:01:21;14.63;81.24
64997;SHT31;51545;51.568;6.998;2023-07-22T02:03:46;14.55;81.75
64997;SHT31;51545;51.568;6.998;2023-07-22T02:06:12;14.59;82.31
64997;SHT31;51545;51.568;6.998;2023-07-22T02:08:37;14.59;81.71
64997;SHT31;51545;51.568;6.998;2023-07-22T02:11:04;14.49;81.91
64997;SHT31;51545;51.568;6.998;2023-07-22T02:13:31;14.52;81.64
64997;SHT31;51545;51.568;6.998;2023-07-22T02:15:57;14.53;81.42
64997;SHT31;51545;51.568;6.998;2023-07-22T02:18:24;14.71;80.97
64997;SHT31;51545;51.568;6.998;2023-07-22T02:20:50;14.74;81.05
64997;SHT31;51545;51.568;6.998;2023-07-22T02:23:16;14.69;81.28
64997;SHT31;51545;51.568;6.998;2023-07-22T02:25:42;14.77;81.00
64997;SHT31;51545;51.568;6.998;2023-07-22T02:28:07;14.69;81.16
64997;SHT31;51545;51.568;6.998;2023-07-22T02:30:36;14.61;81.39
64997;SHT31;51545;51.568;6.998;2023-07-22T02:33:02;14.57;81.75
64997;SHT31;51545;51.568;6.998;2023-07-22T02:35:30;14.61;81.41
64997;SHT31;51545;51.568;6.998;2023-07-22T02:37:55;14.70;81.26
64997;SHT31;51545;51.568;6.998;2023-07-22T02:40:21;14.67;81.71
64997;SHT31;51545;51.568;6.998;2023-07-22T02:42:46;14.70;81.43
64997;SHT31;51545;51.568;6.998;2023-07-22T02:45:12;14.71;81.53
64997;SHT31;51545;51.568;6.998;2023-07-22T02:47:37;14.67;81.32
64997;SHT31;51545;51.568;6.998;2023-07-22T02:50:04;14.70;81.30
64997;SHT31;51545;51.568;6.998;2023-07-22T02:52:30;14.70;81.08
64997;SHT31;51545;51.568;6.998;2023-07-22T02:55:06;14.71;81.40
64997;SHT31;51545;51.568;6.998;2023-07-22T02:57:34;14.70;81.27
64997;SHT31;51545;51.568;6.998;2023-07-22T02:59:59;14.74;81.07
64997;SHT31;51545;51.568;6.998;2023-07-22T03:02:25;14.81;81.24
64997;SHT31;51545;51.568;6.998;2023-07-22T03:04:50;14.73;81.59
64997;SHT31;51545;51.568;6.998;2023-07-22T03:07:16;14.76;81.20
64997;SHT31;51545;51.568;6.998;2023-07-22T03:09:41;14.81;81.21
64997;SHT31;51545;51.568;6.998;2023-07-22T03:12:07;14.95;81.34
64997;SHT31;51545;51.568;6.998;2023-07-22T03:14:33;14.89;80.90
64997;SHT31;51545;51.568;6.998;2023-07-22T03:17:02;14.92;81.00
64997;SHT31;51545;51.568;6.998;2023-07-22T03:19:31;14.74;81.48
64997;SHT31;51545;51.568;6.998;2023-07-22T03:21:56;14.80;81.03
64997;SHT31;51545;51.568;6.998;2023-07-22T03:24:22;14.81;80.79
64997;SHT31;51545;51.568;6.998;2023-07-22T03:26:47;14.80;80.95
64997;SHT31;51545;51.568;6.998;2023-07-22T03:29:13;14.87;80.69
64997;SHT31;51545;51.568;6.998;2023-07-22T03:31:38;14.83;80.67
64997;SHT31;51545;51.568;6.998;2023-07-22T03:34:04;14.77;80.63
64997;SHT31;51545;51.568;6.998;2023-07-22T03:36:29;14.74;81.10
64997;SHT31;51545;51.568;6.998;2023-07-22T03:38:58;14.87;80.47
64997;SHT31;51545;51.568;6.998;2023-07-22T03:41:25;14.84;80.21
64997;SHT31;51545;51.568;6.998;2023-07-22T03:43:50;14.74;80.30
64997;SHT31;51545;51.568;6.998;2023-07-22T03:46:16;14.81;80.02
64997;SHT31;51545;51.568;6.998;2023-07-22T03:48:41;14.81;79.55
64997;SHT31;51545;51.568;6.998;2023-07-22T03:51:07;14.83;79.78
64997;SHT31;51545;51.568;6.998;2023-07-22T03:53:32;14.81;79.80
64997;SHT31;51545;51.568;6.998;2023-07-22T03:55:57;14.83;79.75
64997;SHT31;51545;51.568;6.998;2023-07-22T03:58:23;14.80;79.33
64997;SHT31;51545;51.568;6.998;2023-07-22T04:00:49;14.77;79.42
64997;SHT31;51545;51.568;6.998;2023-07-22T04:03:15;14.85;78.99
64997;SHT31;51545;51.568;6.998;2023-07-22T04:05:40;14.84;78.95
64997;SHT31;51545;51.568;6.998;2023-07-22T04:08:06;14.85;79.31
64997;SHT31;51545;51.568;6.998;2023-07-22T04:10:31;14.87;79.15
64997;SHT31;51545;51.568;6.998;2023-07-22T04:12:57;14.84;79.17
64997;SHT31;51545;51.568;6.998;2023-07-22T04:15:22;14.80;79.13
64997;SHT31;51545;51.568;6.998;2023-07-22T04:17:48;14.85;79.19
64997;SHT31;51545;51.568;6.998;2023-07-22T04:20:13;14.77;79.32
64997;SHT31;51545;51.568;6.998;2023-07-22T04:22:39;14.83;79.11
64997;SHT31;51545;51.568;6.998;2023-07-22T04:25:05;14.77;79.13
64997;SHT31;51545;51.568;6.998;2023-07-22T04:27:30;14.85;78.95
64997;SHT31;51545;51.568;6.998;2023-07-22T04:29:56;14.84;79.11
64997;SHT31;51545;51.568;6.998;2023-07-22T04:32:21;14.81;79.30
64997;SHT31;51545;51.568;6.998;2023-07-22T04:34:47;14.80;79.22
64997;SHT31;51545;51.568;6.998;2023-07-22T04:37:12;14.85;79.25
64997;SHT31;51545;51.568;6.998;2023-07-22T04:39:38;14.88;79.01
64997;SHT31;51545;51.568;6.998;2023-07-22T04:42:04;14.89;79.42
64997;SHT31;51545;51.568;6.998;2023-07-22T04:44:30;14.94;79.07
64997;SHT31;51545;51.568;6.998;2023-07-22T04:46:55;14.95;79.23
64997;SHT31;51545;51.568;6.998;2023-07-22T04:49:21;14.97;79.43
64997;SHT31;51545;51.568;6.998;2023-07-22T04:51:47;14.95;79.26
64997;SHT31;51545;51.568;6.998;2023-07-22T04:54:13;14.98;79.17
64997;SHT31;51545;51.568;6.998;2023-07-22T04:56:40;14.95;79.64
64997;SHT31;51545;51.568;6.998;2023-07-22T04:59:06;15.02;79.65
64997;SHT31;51545;51.568;6.998;2023-07-22T05:01:32;14.94;79.48
64997;SHT31;51545;51.568;6.998;2023-07-22T05:03:58;14.99;79.69
64997;SHT31;51545;51.568;6.998;2023-07-22T05:06:23;15.06;80.03
64997;SHT31;51545;51.568;6.998;2023-07-22T05:08:49;15.09;79.42
64997;SHT31;51545;51.568;6.998;2023-07-22T05:11:14;15.15;79.37
64997;SHT31;51545;51.568;6.998;2023-07-22T05:13:39;15.16;79.18
64997;SHT31;51545;51.568;6.998;2023-07-22T05:16:05;15.16;79.40
64997;SHT31;51545;51.568;6.998;2023-07-22T05:18:30;15.16;79.35
64997;SHT31;51545;51.568;6.998;2023-07-22T05:20:56;15.16;79.08
64997;SHT31;51545;51.568;6.998;2023-07-22T05:23:21;15.14;79.91
64997;SHT31;51545;51.568;6.998;2023-07-22T05:25:50;15.22;79.48
64997;SHT31;51545;51.568;6.998;2023-07-22T05:28:17;15.18;79.16
64997;SHT31;51545;51.568;6.998;2023-07-22T05:30:43;15.20;78.98
64997;SHT31;51545;51.568;6.998;2023-07-22T05:33:08;15.16;79.59
64997;SHT31;51545;51.568;6.998;2023-07-22T05:35:33;15.23;79.22
64997;SHT31;51545;51.568;6.998;2023-07-22T05:37:59;15.26;78.99
64997;SHT31;51545;51.568;6.998;2023-07-22T05:40:25;15.28;79.43
64997;SHT31;51545;51.568;6.998;2023-07-22T05:42:51;15.42;79.51
64997;SHT31;51545;51.568;6.998;2023-07-22T05:45:16;15.39;78.80
64997;SHT31;51545;51.568;6.998;2023-07-22T05:47:42;15.36;78.38
64997;SHT31;51545;51.568;6.998;2023-07-22T05:50:07;15.35;78.71
64997;SHT31;51545;51.568;6.998;2023-07-22T05:52:33;15.39;78.43
64997;SHT31;51545;51.568;6.998;2023-07-22T05:54:58;15.50;78.60
64997;SHT31;51545;51.568;6.998;2023-07-22T05:57:24;15.54;78.35
64997;SHT31;51545;51.568;6.998;2023-07-22T05:59:49;15.57;78.16
64997;SHT31;51545;51.568;6.998;2023-07-22T06:02:16;15.69;78.25
64997;SHT31;51545;51.568;6.998;2023-07-22T06:04:43;15.67;77.36
64997;SHT31;51545;51.568;6.998;2023-07-22T06:07:08;15.69;77.39
64997;SHT31;51545;51.568;6.998;2023-07-22T06:09:34;15.73;77.50
64997;SHT31;51545;51.568;6.998;2023-07-22T06:12:00;15.63;77.10
64997;SHT31;51545;51.568;6.998;2023-07-22T06:14:26;15.70;77.34
64997;SHT31;51545;51.568;6.998;2023-07-22T06:16:52;15.69;77.47
64997;SHT31;51545;51.568;6.998;2023-07-22T06:19:18;15.78;77.06
64997;SHT31;51545;51.568;6.998;2023-07-22T06:21:43;15.87;77.15
64997;SHT31;51545;51.568;6.998;2023-07-22T06:24:09;15.94;77.38
64997;SHT31;51545;51.568;6.998;2023-07-22T06:26:35;16.02;77.42
64997;SHT31;51545;51.568;6.998;2023-07-22T06:29:00;16.06;77.35
64997;SHT31;51545;51.568;6.998;2023-07-22T06:31:26;16.16;77.21
64997;SHT31;51545;51.568;6.998;2023-07-22T06:33:55;16.15;76.85
64997;SHT31;51545;51.568;6.998;2023-07-22T06:36:24;16.29;77.31
64997;SHT31;51545;51.568;6.998;2023-07-22T06:38:50;16.39;77.13
64997;SHT31;51545;51.568;6.998;2023-07-22T06:41:16;16.43;76.66
64997;SHT31;51545;51.568;6.998;2023-07-22T06:43:42;16.56;76.62
64997;SHT31;51545;51.568;6.998;2023-07-22T06:46:08;16.70;77.08
64997;SHT31;51545;51.568;6.998;2023-07-22T06:48:33;16.68;76.44
64997;SHT31;51545;51.568;6.998;2023-07-22T06:50:59;16.68;75.82
64997;SHT31;51545;51.568;6.998;2023-07-22T06:53:24;16.77;76.50
64997;SHT31;51545;51.568;6.998;2023-07-22T06:55:50;16.92;76.48
64997;SHT31;51545;51.568;6.998;2023-07-22T06:58:21;16.95;75.28
64997;SHT31;51545;51.568;6.998;2023-07-22T07:00:55;16.85;75.15
64997;SHT31;51545;51.568;6.998;2023-07-22T07:03:21;16.91;74.84
64997;SHT31;51545;51.568;6.998;2023-07-22T07:05:56;17.15;75.50
64997;SHT31;51545;51.568;6.998;2023-07-22T07:08:22;17.16;74.71
64997;SHT31;51545;51.568;6.998;2023-07-22T07:10:49;17.20;74.86
64997;SHT31;51545;51.568;6.998;2023-07-22T07:13:15;17.22;75.25
64997;SHT31;51545;51.568;6.998;2023-07-22T07:15:40;17.33;74.22
64997;SHT31;51545;51.568;6.998;2023-07-22T07:18:06;17.27;74.14
64997;SHT31;51545;51.568;6.998;2023-07-22T07:20:31;17.27;73.33
64997;SHT31;51545;51.568;6.998;2023-07-22T07:22:57;17.40;73.81
64997;SHT31;51545;51.568;6.998;2023-07-22T07:25:22;17.57;72.94
64997;SHT31;51545;51.568;6.998;2023-07-22T07:27:48;17.70;73.13
64997;SHT31;51545;51.568;6.998;2023-07-22T07:30:13;17.88;73.67
64997;SHT31;51545;51.568;6.998;2023-07-22T07:32:39;17.82;72.53
64997;SHT31;51545;51.568;6.998;2023-07-22T07:35:04;17.84;72.25
64997;SHT31;51545;51.568;6.998;2023-07-22T07:37:31;17.99;72.01
64997;SHT31;51545;51.568;6.998;2023-07-22T07:39:57;17.98;71.50
64997;SHT31;51545;51.568;6.998;2023-07-22T07:42:27;18.13;71.31
64997;SHT31;51545;51.568;6.998;2023-07-22T07:44:53;18.05;70.61
64997;SHT31;51545;51.568;6.998;2023-07-22T07:47:18;18.18;70.85
64997;SHT31;51545;51.568;6.998;2023-07-22T07:49:44;18.42;71.00
64997;SHT31;51545;51.568;6.998;2023-07-22T07:52:10;18.46;68.71
64997;SHT31;51545;51.568;6.998;2023-07-22T07:54:35;18.44;68.57
64997;SHT31;51545;51.568;6.998;2023-07-22T07:57:01;18.23;68.96
64997;SHT31;51545;51.568;6.998;2023-07-22T07:59:26;18.19;68.66
64997;SHT31;51545;51.568;6.998;2023-07-22T08:01:52;18.33;68.85
64997;SHT31;51545;51.568;6.998;2023-07-22T08:04:18;18.23;68.49
64997;SHT31;51545;51.568;6.998;2023-07-22T08:06:43;18.36;68.62
64997;SHT31;51545;51.568;6.998;2023-07-22T08:09:10;18.52;69.08
64997;SHT31;51545;51.568;6.998;2023-07-22T08:11:36;18.72;68.77
64997;SHT31;51545;51.568;6.998;2023-07-22T08:14:03;18.67;68.26
64997;SHT31;51545;51.568;6.998;2023-07-22T08:16:30;18.78;68.89
64997;SHT31;51545;51.568;6.998;2023-07-22T08:18:55;19.02;68.50
64997;SHT31;51545;51.568;6.998;2023-07-22T08:21:21;19.08;68.40
64997;SHT31;51545;51.568;6.998;2023-07-22T08:23:46;18.82;68.21
64997;SHT31;51545;51.568;6.998;2023-07-22T08:26:12;19.40;68.94
64997;SHT31;51545;51.568;6.998;2023-07-22T08:28:38;19.49;68.29
64997;SHT31;51545;51.568;6.998;2023-07-22T08:31:04;19.72;68.04
64997;SHT31;51545;51.568;6.998;2023-07-22T08:33:30;19.35;66.98
64997;SHT31;51545;51.568;6.998;2023-07-22T08:35:56;19.30;67.04
64997;SHT31;51545;51.568;6.998;2023-07-22T08:38:21;18.98;67.28
64997;SHT31;51545;51.568;6.998;2023-07-22T08:40:50;19.19;66.79
64997;SHT31;51545;51.568;6.998;2023-07-22T08:43:16;19.40;66.93
64997;SHT31;51545;51.568;6.998;2023-07-22T08:45:45;19.61;66.10
64997;SHT31;51545;51.568;6.998;2023-07-22T08:48:12;19.36;65.72
64997;SHT31;51545;51.568;6.998;2023-07-22T08:50:49;19.29;65.82
64997;SHT31;51545;51.568;6.998;2023-07-22T08:53:20;19.29;66.35
64997;SHT31;51545;51.568;6.998;2023-07-22T08:55:46;19.26;66.61
64997;SHT31;51545;51.568;6.998;2023-07-22T08:58:13;19.35;67.41
64997;SHT31;51545;51.568;6.998;2023-07-22T09:00:39;19.43;66.38
64997;SHT31;51545;51.568;6.998;2023-07-22T09:03:05;19.01;66.83
64997;SHT31;51545;51.568;6.998;2023-07-22T09:05:32;18.81;67.30
64997;SHT31;51545;51.568;6.998;2023-07-22T09:07:59;19.19;68.45
64997;SHT31;51545;51.568;6.998;2023-07-22T09:10:27;19.19;67.81
64997;SHT31;51545;51.568;6.998;2023-07-22T09:12:53;19.27;67.44
64997;SHT31;51545;51.568;6.998;2023-07-22T09:15:19;19.50;67.34
64997;SHT31;51545;51.568;6.998;2023-07-22T09:17:46;19.57;66.26
64997;SHT31;51545;51.568;6.998;2023-07-22T09:20:12;19.82;65.87
64997;SHT31;51545;51.568;6.998;2023-07-22T09:22:51;19.67;66.50
64997;SHT31;51545;51.568;6.998;2023-07-22T09:25:17;19.91;66.36
64997;SHT31;51545;51.568;6.998;2023-07-22T09:27:48;20.04;66.56
64997;SHT31;51545;51.568;6.998;2023-07-22T09:30:21;20.40;65.02
64997;SHT31;51545;51.568;6.998;2023-07-22T09:32:52;20.43;63.56
64997;SHT31;51545;51.568;6.998;2023-07-22T09:35:18;20.58;63.60
64997;SHT31;51545;51.568;6.998;2023-07-22T09:37:44;20.41;63.19
64997;SHT31;51545;51.568;6.998;2023-07-22T09:42:42;20.15;64.85
64997;SHT31;51545;51.568;6.998;2023-07-22T09:45:12;20.16;65.39
64997;SHT31;51545;51.568;6.998;2023-07-22T09:47:41;20.96;64.61
64997;SHT31;51545;51.568;6.998;2023-07-22T09:50:10;21.54;61.99
64997;SHT31;51545;51.568;6.998;2023-07-22T09:52:58;20.91;61.40
64997;SHT31;51545;51.568;6.998;2023-07-22T09:55:25;21.26;60.24
64997;SHT31;51545;51.568;6.998;2023-07-22T09:57:55;21.39;61.03
64997;SHT31;51545;51.568;6.998;2023-07-22T10:00:23;20.64;61.08
64997;SHT31;51545;51.568;6.998;2023-07-22T10:02:51;20.81;61.14
64997;SHT31;51545;51.568;6.998;2023-07-22T10:05:18;20.57;61.62
64997;SHT31;51545;51.568;6.998;2023-07-22T10:07:54;20.74;60.75
64997;SHT31;51545;51.568;6.998;2023-07-22T10:13:00;21.13;61.52
64997;SHT31;51545;51.568;6.998;2023-07-22T10:15:27;20.82;61.38
64997;SHT31;51545;51.568;6.998;2023-07-22T10:17:54;21.10;61.32
64997;SHT31;51545;51.568;6.998;2023-07-22T10:20:21;21.13;61.44
64997;SHT31;51545;51.568;6.998;2023-07-22T10:22:49;21.35;61.02
64997;SHT31;51545;51.568;6.998;2023-07-22T10:25:16;21.16;61.97
64997;SHT31;51545;51.568;6.998;2023-07-22T10:27:42;21.44;61.89
64997;SHT31;51545;51.568;6.998;2023-07-22T10:30:09;21.19;60.93
64997;SHT31;51545;51.568;6.998;2023-07-22T10:32:41;21.47;61.85
64997;SHT31;51545;51.568;6.998;2023-07-22T10:35:09;21.88;60.88
64997;SHT31;51545;51.568;6.998;2023-07-22T10:37:36;21.82;60.69
64997;SHT31;51545;51.568;6.998;2023-07-22T10:40:16;21.53;61.05
64997;SHT31;51545;51.568;6.998;2023-07-22T10:43:05;21.27;61.14
64997;SHT31;51545;51.568;6.998;2023-07-22T10:45:33;21.63;60.84
64997;SHT31;51545;51.568;6.998;2023-07-22T10:50:52;22.96;58.13
64997;SHT31;51545;51.568;6.998;2023-07-22T10:53:30;23.49;57.00
64997;SHT31;51545;51.568;6.998;2023-07-22T10:56:12;23.73;56.31
64997;SHT31;51545;51.568;6.998;2023-07-22T11:06:36;22.35;57.61
64997;SHT31;51545;51.568;6.998;2023-07-22T11:09:04;22.50;58.92
64997;SHT31;51545;51.568;6.998;2023-07-22T11:11:34;22.15;58.48
64997;SHT31;51545;51.568;6.998;2023-07-22T11:17:03;23.30;56.79
64997;SHT31;51545;51.568;6.998;2023-07-22T11:19:30;23.03;55.54
64997;SHT31;51545;51.568;6.998;2023-07-22T11:21:56;23.63;56.66
64997;SHT31;51545;51.568;6.998;2023-07-22T11:24:22;23.06;54.28
64997;SHT31;51545;51.568;6.998;2023-07-22T11:26:49;22.53;55.63
64997;SHT31;51545;51.568;6.998;2023-07-22T11:29:16;22.99;56.47
64997;SHT31;51545;51.568;6.998;2023-07-22T11:31:43;22.80;56.71
64997;SHT31;51545;51.568;6.998;2023-07-22T11:34:15;22.26;54.56
64997;SHT31;51545;51.568;6.998;2023-07-22T11:36:42;22.41;55.10
64997;SHT31;51545;51.568;6.998;2023-07-22T11:39:12;22.59;55.97
64997;SHT31;51545;51.568;6.998;2023-07-22T11:41:42;22.98;55.98
64997;SHT31;51545;51.568;6.998;2023-07-22T11:44:10;23.08;55.99
64997;SHT31;51545;51.568;6.998;2023-07-22T11:47:13;22.36;55.67
64997;SHT31;51545;51.568;6.998;2023-07-22T11:49:37;22.65;56.78
64997;SHT31;51545;51.568;6.998;2023-07-22T11:52:05;22.64;55.82
64997;SHT31;51545;51.568;6.998;2023-07-22T11:54:33;22.59;55.92
64997;SHT31;51545;51.568;6.998;2023-07-22T11:57:15;22.59;57.92
64997;SHT31;51545;51.568;6.998;2023-07-22T11:59:44;23.49;57.10
64997;SHT31;51545;51.568;6.998;2023-07-22T12:02:15;23.32;53.67
64997;SHT31;51545;51.568;6.998;2023-07-22T12:04:42;23.55;53.27
64997;SHT31;51545;51.568;6.998;2023-07-22T12:07:21;23.87;51.47
64997;SHT31;51545;51.568;6.998;2023-07-22T12:09:51;23.90;52.06
64997;SHT31;51545;51.568;6.998;2023-07-22T12:12:17;23.73;53.82
64997;SHT31;51545;51.568;6.998;2023-07-22T12:14:43;24.39;52.69
64997;SHT31;51545;51.568;6.998;2023-07-22T12:17:08;24.88;52.16
64997;SHT31;51545;51.568;6.998;2023-07-22T12:19:34;24.73;51.40
64997;SHT31;51545;51.568;6.998;2023-07-22T12:22:00;24.74;50.92
64997;SHT31;51545;51.568;6.998;2023-07-22T12:24:27;24.15;53.52
64997;SHT31;51545;51.568;6.998;2023-07-22T12:26:53;24.01;53.29
64997;SHT31;51545;51.568;6.998;2023-07-22T12:29:19;24.15;51.71
64997;SHT31;51545;51.568;6.998;2023-07-22T12:31:45;24.37;52.64
64997;SHT31;51545;51.568;6.998;2023-07-22T12:34:10;23.71;53.30
64997;SHT31;51545;51.568;6.998;2023-07-22T12:36:36;23.53;53.60
64997;SHT31;51545;51.568;6.998;2023-07-22T12:39:01;24.56;51.33
64997;SHT31;51545;51.568;6.998;2023-07-22T12:41:27;23.84;49.51
64997;SHT31;51545;51.568;6.998;2023-07-22T12:43:53;24.01;50.19
64997;SHT31;51545;51.568;6.998;2023-07-22T12:46:18;23.73;50.32
64997;SHT31;51545;51.568;6.998;2023-07-22T12:48:44;23.84;51.92
64997;SHT31;51545;51.568;6.998;2023-07-22T12:51:09;23.95;51.49
64997;SHT31;51545;51.568;6.998;2023-07-22T12:53:35;23.58;51.97
64997;SHT31;51545;51.568;6.998;2023-07-22T12:56:00;23.74;51.62
64997;SHT31;51545;51.568;6.998;2023-07-22T12:58:28;23.98;51.56
64997;SHT31;51545;51.568;6.998;2023-07-22T13:00:54;24.56;51.73
64997;SHT31;51545;51.568;6.998;2023-07-22T13:03:19;24.91;51.71
64997;SHT31;51545;51.568;6.998;2023-07-22T13:05:45;24.80;53.09
64997;SHT31;51545;51.568;6.998;2023-07-22T13:08:10;24.19;51.02
64997;SHT31;51545;51.568;6.998;2023-07-22T13:10:36;23.57;52.08
64997;SHT31;51545;51.568;6.998;2023-07-22T13:13:04;23.73;53.00
64997;SHT31;51545;51.568;6.998;2023-07-22T13:15:30;23.11;52.77
64997;SHT31;51545;51.568;6.998;2023-07-22T13:17:56;23.03;52.61
64997;SHT31;51545;51.568;6.998;2023-07-22T13:20:22;23.57;53.96
64997;SHT31;51545;51.568;6.998;2023-07-22T13:22:47;23.51;54.00
64997;SHT31;51545;51.568;6.998;2023-07-22T13:25:13;23.12;54.49
64997;SHT31;51545;51.568;6.998;2023-07-22T13:27:38;22.78;55.25
64997;SHT31;51545;51.568;6.998;2023-07-22T13:30:06;23.77;54.12
64997;SHT31;51545;51.568;6.998;2023-07-22T13:32:32;23.71;53.88
64997;SHT31;51545;51.568;6.998;2023-07-22T13:34:57;23.35;53.51
64997;SHT31;51545;51.568;6.998;2023-07-22T13:37:23;23.11;53.97
64997;SHT31;51545;51.568;6.998;2023-07-22T13:39:49;24.23;51.83
64997;SHT31;51545;51.568;6.998;2023-07-22T13:42:14;24.91;51.90
64997;SHT31;51545;51.568;6.998;2023-07-22T13:44:40;24.16;51.14
64997;SHT31;51545;51.568;6.998;2023-07-22T13:47:05;23.23;52.25
64997;SHT31;51545;51.568;6.998;2023-07-22T13:49:30;23.50;53.93
64997;SHT31;51545;51.568;6.998;2023-07-22T13:51:56;23.68;53.40
64997;SHT31;51545;51.568;6.998;2023-07-22T13:54:22;23.97;52.52
64997;SHT31;51545;51.568;6.998;2023-07-22T13:56:47;24.27;52.58
64997;SHT31;51545;51.568;6.998;2023-07-22T13:59:13;23.82;52.38
64997;SHT31;51545;51.568;6.998;2023-07-22T14:01:39;24.10;52.19
64997;SHT31;51545;51.568;6.998;2023-07-22T14:04:04;24.80;51.43
64997;SHT31;51545;51.568;6.998;2023-07-22T14:06:30;24.54;52.85
64997;SHT31;51545;51.568;6.998;2023-07-22T14:08:57;24.05;51.77
64997;SHT31;51545;51.568;6.998;2023-07-22T14:11:23;23.54;52.45
64997;SHT31;51545;51.568;6.998;2023-07-22T14:13:48;24.19;52.46
64997;SHT31;51545;51.568;6.998;2023-07-22T14:16:16;24.52;51.82
64997;SHT31;51545;51.568;6.998;2023-07-22T14:18:41;23.75;52.64
64997;SHT31;51545;51.568;6.998;2023-07-22T14:21:07;23.71;52.54
64997;SHT31;51545;51.568;6.998;2023-07-22T14:23:33;23.61;51.56
64997;SHT31;51545;51.568;6.998;2023-07-22T14:25:58;23.60;51.20
64997;SHT31;51545;51.568;6.998;2023-07-22T14:28:24;23.58;51.74
64997;SHT31;51545;51.568;6.998;2023-07-22T14:30:49;23.39;52.21
64997;SHT31;51545;51.568;6.998;2023-07-22T14:33:14;23.16;51.49
64997;SHT31;51545;51.568;6.998;2023-07-22T14:35:40;23.32;52.39
64997;SHT31;51545;51.568;6.998;2023-07-22T14:38:05;23.51;52.45
64997;SHT31;51545;51.568;6.998;2023-07-22T14:40:31;23.70;51.28
64997;SHT31;51545;51.568;6.998;2023-07-22T14:42:56;23.32;51.71
64997;SHT31;51545;51.568;6.998;2023-07-22T14:45:22;23.82;51.09
64997;SHT31;51545;51.568;6.998;2023-07-22T14:47:47;24.02;50.75
64997;SHT31;51545;51.568;6.998;2023-07-22T14:50:13;24.22;50.51
64997;SHT31;51545;51.568;6.998;2023-07-22T14:52:39;25.14;50.16
64997;SHT31;51545;51.568;6.998;2023-07-22T14:55:05;24.70;49.33
64997;SHT31;51545;51.568;6.998;2023-07-22T14:57:31;24.02;50.99
64997;SHT31;51545;51.568;6.998;2023-07-22T14:59:56;24.13;51.33
64997;SHT31;51545;51.568;6.998;2023-07-22T15:02:22;24.15;50.72
64997;SHT31;51545;51.568;6.998;2023-07-22T15:04:48;23.67;51.39
64997;SHT31;51545;51.568;6.998;2023-07-22T15:07:14;23.63;51.75
64997;SHT31;51545;51.568;6.998;2023-07-22T15:09:39;23.61;51.50
64997;SHT31;51545;51.568;6.998;2023-07-22T15:12:05;23.94;51.67
64997;SHT31;51545;51.568;6.998;2023-07-22T15:14:30;23.99;50.86
64997;SHT31;51545;51.568;6.998;2023-07-22T15:16:56;24.52;49.34
64997;SHT31;51545;51.568;6.998;2023-07-22T15:19:21;25.05;47.93
64997;SHT31;51545;51.568;6.998;2023-07-22T15:21:48;24.99;48.88
64997;SHT31;51545;51.568;6.998;2023-07-22T15:24:13;25.09;48.08
64997;SHT31;51545;51.568;6.998;2023-07-22T15:26:39;25.11;48.35
64997;SHT31;51545;51.568;6.998;2023-07-22T15:29:04;24.88;49.36
64997;SHT31;51545;51.568;6.998;2023-07-22T15:31:30;24.25;49.18
64997;SHT31;51545;51.568;6.998;2023-07-22T15:33:55;24.30;50.38
64997;SHT31;51545;51.568;6.998;2023-07-22T15:36:20;23.71;51.35
64997;SHT31;51545;51.568;6.998;2023-07-22T15:38:46;23.65;51.60
64997;SHT31;51545;51.568;6.998;2023-07-22T15:41:11;23.61;51.99
64997;SHT31;51545;51.568;6.998;2023-07-22T15:43:37;23.60;51.16
64997;SHT31;51545;51.568;6.998;2023-07-22T15:46:02;23.50;52.72